RAAF Base Richmond

Airport
ICAO code: 
YSRI
IATA Code: 
RCM
Summary
ICAO Region: 
APAC
Territory: 
Location: 
Hawkesbury, New South Wales
Serving: 
Richmond
Elevation: 
1 ft
Coordinates: 
Aerial View: 
33° 36' 15.341" S, 150° 46' 55.351" E
Metar
Observation
YSRI 012330Z AUTO 01004KT 320V050 9999 // SCT032 23/16 Q1017
Station
Richmond Aus-Afb
Date/Time
2021-12-01 23:30:00
Wind direction
10°
Wind speed
04 kts
Lowest cloud amount
scattered clouds
Temperature
23°C
Dew point
16°C
Humidity
64%
QNH
1017 hPa
Weather condition
n/a

Royal Australian Air Force base on northern outskirts of Sydney; home to the Air Lift Group.

Climatology

Temperate Marine climate/Oceanic climate (Köppen climate classification Cfb). Moderately cool summer and comparatively warm winter

Runways

Designator Length Width Surface Rops
10/28 2134 45 ASP Yes/Yes
Airport map: 
Aerial View: 

SKYbrary Partners:

Safety knowledge contributed by: